createdAt,value
2019-05-21T00:00:30.885Z,95.43
2019-05-21T00:03:00.476Z,89.47
2019-05-21T00:05:31.412Z,96.87
2019-05-21T00:08:00.838Z,84.23
2019-05-21T00:10:30.363Z,79.13
2019-05-21T00:12:59.836Z,82.40
2019-05-21T00:15:29.326Z,80.23
2019-05-21T00:17:59.249Z,78.43
2019-05-21T00:20:28.690Z,80.00
2019-05-21T00:22:58.171Z,76.57
2019-05-21T00:25:27.593Z,74.50
2019-05-21T00:28:00.102Z,76.97
2019-05-21T00:31:06.004Z,72.87
2019-05-21T00:34:11.922Z,79.07
2019-05-21T00:37:19.696Z,75.97
2019-05-21T00:40:25.515Z,80.70
2019-05-21T00:42:55.276Z,73.43
2019-05-21T00:45:24.717Z,72.60
2019-05-21T00:47:54.150Z,69.20
2019-05-21T00:50:23.614Z,75.73
2019-05-21T00:52:53.061Z,75.80
2019-05-21T00:55:22.526Z,73.33
2019-05-21T00:57:51.954Z,86.93
2019-05-21T01:00:21.654Z,79.43
2019-05-21T01:02:51.141Z,76.17
2019-05-21T01:05:22.115Z,78.33
2019-05-21T01:07:51.896Z,76.90
2019-05-21T01:10:21.378Z,76.27
2019-05-21T01:12:50.962Z,72.30
2019-05-21T01:15:20.572Z,72.33
2019-05-21T01:17:50.043Z,85.53
2019-05-21T01:20:21.469Z,73.03
2019-05-21T01:22:50.964Z,71.47
2019-05-21T01:25:20.427Z,75.03
2019-05-21T01:27:49.906Z,69.80
2019-05-21T01:30:19.445Z,64.13
2019-05-21T01:32:48.882Z,65.93
2019-05-21T01:35:18.436Z,63.90
2019-05-21T01:37:47.870Z,63.60
2019-05-21T01:40:17.499Z,53.97
2019-05-21T01:42:46.921Z,64.87
2019-05-21T01:45:16.521Z,62.80
2019-05-21T01:47:45.950Z,60.70
2019-05-21T01:50:15.404Z,59.47
2019-05-21T01:52:44.823Z,59.03
2019-05-21T01:55:14.361Z,56.43
2019-05-21T01:57:43.851Z,53.60
2019-05-21T02:00:13.553Z,57.30
2019-05-21T02:02:43.119Z,56.47
2019-05-21T02:05:13.248Z,50.10
2019-05-21T02:07:42.680Z,49.80
2019-05-21T02:10:12.390Z,52.40
2019-05-21T02:12:41.808Z,45.63
2019-05-21T02:15:13.047Z,46.63
2019-05-21T02:17:42.480Z,43.93
2019-05-21T02:20:11.996Z,47.83
2019-05-21T02:22:41.465Z,41.10
2019-05-21T02:25:11.641Z,43.07
2019-05-21T02:27:41.362Z,45.13
2019-05-21T02:30:12.351Z,40.83
2019-05-21T02:32:41.845Z,43.73
2019-05-21T02:35:13.213Z,41.23
2019-05-21T02:37:43.026Z,44.37
2019-05-21T02:40:13.058Z,35.23
2019-05-21T02:42:42.487Z,37.97
2019-05-21T02:45:13.876Z,37.63
2019-05-21T02:47:43.362Z,35.13
2019-05-21T02:50:13.552Z,30.07
2019-05-21T02:52:43.094Z,27.10
2019-05-21T02:55:12.981Z,31.47
2019-05-21T02:57:42.444Z,32.23
2019-05-21T03:00:26.796Z,24.27
2019-05-21T03:02:56.676Z,25.70
2019-05-21T03:05:26.274Z,19.40
2019-05-21T03:07:55.802Z,24.73
2019-05-21T03:10:25.384Z,25.83
2019-05-21T03:12:54.983Z,27.20
2019-05-21T03:15:24.758Z,21.30
2019-05-21T03:17:54.372Z,22.63
2019-05-21T03:20:23.837Z,23.93
2019-05-21T03:22:53.278Z,25.53
2019-05-21T03:25:22.730Z,23.30
2019-05-21T03:27:52.156Z,28.43
2019-05-21T03:30:21.765Z,24.90
2019-05-21T03:32:51.264Z,31.63
2019-05-21T03:35:38.931Z,31.87
2019-05-21T03:38:07.603Z,34.63
2019-05-21T03:40:37.575Z,33.93
2019-05-21T03:43:06.999Z,32.13
2019-05-21T03:45:38.054Z,36.50
2019-05-21T03:48:07.550Z,31.47
2019-05-21T03:50:37.222Z,35.20
2019-05-21T03:53:06.828Z,40.23
2019-05-21T03:55:36.294Z,41.73
2019-05-21T03:58:05.797Z,39.40
2019-05-21T04:00:35.384Z,44.37
2019-05-21T04:03:04.970Z,42.27
2019-05-21T04:05:34.481Z,45.23
2019-05-21T04:08:04.083Z,45.10
2019-05-21T04:10:33.556Z,39.43
2019-05-21T04:13:07.303Z,33.87
2019-05-21T04:15:56.702Z,47.57
2019-05-21T04:18:36.780Z,39.50
2019-05-21T04:21:06.242Z,36.43
2019-05-21T04:23:37.405Z,44.70
2019-05-21T04:26:06.847Z,30.97
2019-05-21T04:28:36.271Z,42.90
2019-05-21T04:31:05.857Z,36.67
2019-05-21T04:33:35.347Z,30.93
2019-05-21T04:36:05.096Z,35.77
2019-05-21T04:38:35.247Z,39.97
2019-05-21T04:41:04.846Z,32.80
2019-05-21T04:43:34.272Z,36.03
2019-05-21T04:46:03.915Z,43.77
2019-05-21T04:48:33.500Z,37.87
2019-05-21T04:51:03.425Z,40.97
2019-05-21T04:53:32.854Z,28.47
2019-05-21T04:56:02.372Z,33.50
2019-05-21T04:58:31.782Z,30.17
2019-05-21T05:01:01.242Z,25.90
2019-05-21T05:03:30.810Z,26.63
2019-05-21T05:06:00.283Z,26.93
2019-05-21T05:08:29.707Z,25.63
2019-05-21T05:10:59.239Z,27.97
2019-05-21T05:13:28.749Z,20.77
2019-05-21T05:15:58.243Z,22.37
2019-05-21T05:18:29.118Z,22.33
2019-05-21T05:20:58.580Z,23.37
2019-05-21T05:23:28.150Z,18.90
2019-05-21T05:25:57.682Z,17.97
2019-05-21T05:28:27.170Z,29.43
2019-05-21T05:30:56.765Z,21.27
2019-05-21T05:33:26.197Z,16.47
2019-05-21T05:35:55.741Z,22.03
2019-05-21T05:38:25.160Z,20.97
2019-05-21T05:40:54.689Z,19.63
2019-05-21T05:43:24.281Z,24.30
2019-05-21T05:45:53.759Z,17.90
2019-05-21T05:48:23.446Z,17.10
2019-05-21T05:50:56.246Z,18.73
2019-05-21T05:53:25.671Z,19.40
2019-05-21T05:55:55.236Z,18.50
2019-05-21T05:58:24.825Z,20.57
2019-05-21T06:00:54.370Z,18.90
2019-05-21T06:03:23.857Z,18.13
2019-05-21T06:05:53.393Z,18.47
2019-05-21T06:08:22.886Z,17.60
2019-05-21T06:10:52.466Z,16.40
2019-05-21T06:13:21.886Z,17.57
2019-05-21T06:15:51.376Z,17.00
2019-05-21T06:18:20.907Z,15.87
2019-05-21T06:20:51.849Z,16.27
2019-05-21T06:23:21.527Z,14.97
2019-05-21T06:25:51.558Z,14.77
2019-05-21T06:28:21.637Z,16.20
2019-05-21T06:30:51.147Z,13.83
2019-05-21T06:33:20.606Z,12.60
2019-05-21T06:35:50.025Z,12.73
2019-05-21T06:38:19.524Z,13.40
2019-05-21T06:40:49.019Z,12.40
2019-05-21T06:43:18.481Z,12.17
2019-05-21T06:45:47.931Z,13.50
2019-05-21T06:48:18.941Z,11.23
2019-05-21T06:50:48.375Z,14.33
2019-05-21T06:53:17.832Z,13.40
2019-05-21T06:55:47.327Z,15.13
2019-05-21T06:58:16.798Z,14.30
2019-05-21T07:00:46.280Z,15.07
2019-05-21T07:03:15.982Z,14.43
2019-05-21T07:05:58.411Z,13.77
2019-05-21T07:08:32.029Z,13.30
2019-05-21T07:10:48.260Z,14.17
2019-05-21T07:13:17.723Z,15.20
2019-05-21T07:15:47.150Z,15.37
2019-05-21T07:18:16.647Z,14.67
2019-05-21T07:20:46.140Z,15.87
2019-05-21T07:23:15.583Z,17.80
2019-05-21T07:25:45.894Z,14.87
2019-05-21T07:28:15.486Z,15.27
2019-05-21T07:30:45.030Z,16.20
2019-05-21T07:33:15.949Z,17.83
2019-05-21T07:35:45.461Z,16.57
2019-05-21T07:38:15.361Z,17.53
2019-05-21T07:40:45.607Z,17.17
2019-05-21T07:43:15.265Z,19.60
2019-05-21T07:45:44.824Z,19.97
2019-05-21T07:48:14.288Z,19.10
2019-05-21T07:50:43.884Z,18.77
2019-05-21T07:53:13.392Z,20.33
2019-05-21T07:55:43.892Z,19.23
2019-05-21T07:58:13.518Z,19.73
2019-05-21T08:00:43.247Z,20.97
2019-05-21T08:03:12.984Z,20.23
2019-05-21T08:05:42.436Z,17.73
2019-05-21T08:08:11.879Z,18.47
2019-05-21T08:10:41.530Z,18.30
2019-05-21T08:13:10.977Z,18.27
2019-05-21T08:15:40.475Z,16.77
2019-05-21T08:18:09.890Z,17.03
2019-05-21T08:20:39.367Z,18.77
2019-05-21T08:23:09.401Z,17.30
2019-05-21T08:25:38.842Z,18.07
2019-05-21T08:28:08.317Z,15.90
2019-05-21T08:30:37.792Z,15.33
2019-05-21T08:33:07.299Z,15.27
2019-05-21T08:35:36.807Z,17.73
2019-05-21T08:38:06.942Z,17.20
2019-05-21T08:40:36.490Z,16.13
2019-05-21T08:43:06.011Z,14.57
2019-05-21T08:45:35.445Z,17.43
2019-05-21T08:48:05.324Z,15.07
2019-05-21T08:50:34.734Z,14.10
2019-05-21T08:53:04.502Z,13.97
2019-05-21T08:55:34.015Z,13.10
2019-05-21T08:58:07.478Z,13.17
2019-05-21T09:00:35.085Z,13.10
2019-05-21T09:03:04.790Z,21.87
2019-05-21T09:05:34.221Z,12.07
2019-05-21T09:08:03.788Z,11.27
2019-05-21T09:10:33.293Z,11.97
2019-05-21T09:13:02.740Z,10.10
2019-05-21T09:15:32.159Z,10.70
2019-05-21T09:18:01.658Z,9.80
2019-05-21T09:20:32.764Z,11.57
2019-05-21T09:23:02.214Z,11.30
2019-05-21T09:25:31.675Z,10.43
2019-05-21T09:28:01.187Z,8.37
2019-05-21T09:30:30.637Z,9.20
2019-05-21T09:33:01.437Z,9.23
2019-05-21T09:35:30.906Z,9.47
2019-05-21T09:38:00.350Z,9.80
2019-05-21T09:40:29.941Z,10.30
2019-05-21T09:42:59.405Z,10.17
2019-05-21T09:45:28.974Z,11.07
2019-05-21T09:47:58.432Z,11.20
2019-05-21T09:50:29.535Z,11.67
2019-05-21T09:52:58.990Z,10.97
2019-05-21T09:55:28.435Z,12.60
2019-05-21T09:58:03.843Z,12.10
2019-05-21T10:00:51.687Z,11.00
2019-05-21T10:03:22.804Z,10.67
2019-05-21T10:05:52.267Z,11.97
2019-05-21T10:08:21.822Z,11.33
2019-05-21T10:10:51.309Z,11.40
2019-05-21T10:13:20.907Z,11.73
2019-05-21T10:15:50.377Z,13.00
2019-05-21T10:18:19.840Z,12.90
2019-05-21T10:20:49.310Z,14.13
2019-05-21T10:23:20.683Z,14.93
2019-05-21T10:25:50.134Z,13.57
2019-05-21T10:28:19.598Z,12.63
2019-05-21T10:30:49.047Z,13.23
2019-05-21T10:33:18.472Z,13.10
2019-05-21T10:35:47.914Z,12.10
2019-05-21T10:38:17.341Z,12.23
2019-05-21T10:40:46.868Z,12.57
2019-05-21T10:43:16.472Z,9.63
2019-05-21T10:45:46.006Z,9.10
2019-05-21T10:48:15.477Z,8.97
2019-05-21T10:50:45.088Z,10.50
2019-05-21T10:53:14.686Z,10.07
2019-05-21T10:55:44.507Z,9.77
2019-05-21T10:58:14.139Z,10.20
2019-05-21T11:00:44.981Z,9.27
2019-05-21T11:03:16.277Z,10.27
2019-05-21T11:05:47.539Z,10.67
2019-05-21T11:08:25.201Z,10.37
2019-05-21T11:10:48.502Z,9.90
2019-05-21T11:13:17.916Z,10.20
2019-05-21T11:15:47.446Z,10.27
2019-05-21T11:18:16.852Z,9.90
2019-05-21T11:20:46.283Z,9.27
2019-05-21T11:23:15.752Z,10.53
2019-05-21T11:25:45.193Z,10.13
2019-05-21T11:28:14.656Z,11.33
2019-05-21T11:30:44.450Z,11.03
2019-05-21T11:33:13.986Z,11.67
2019-05-21T11:35:43.462Z,11.73
2019-05-21T11:38:14.583Z,11.40
2019-05-21T11:40:44.079Z,12.30
2019-05-21T11:43:13.489Z,11.57
2019-05-21T11:45:43.201Z,11.60
2019-05-21T11:48:12.800Z,10.63
2019-05-21T11:50:42.283Z,11.10
2019-05-21T11:53:11.720Z,11.23
2019-05-21T11:55:41.137Z,10.50
2019-05-21T11:58:10.656Z,10.50
2019-05-21T12:00:40.188Z,10.90
2019-05-21T12:03:09.638Z,11.43
2019-05-21T12:05:39.203Z,11.60
2019-05-21T12:08:08.657Z,10.60
2019-05-21T12:10:38.075Z,11.90
2019-05-21T12:13:07.532Z,12.03
2019-05-21T12:15:37.104Z,11.63
2019-05-21T12:18:06.524Z,12.27
2019-05-21T12:20:37.498Z,12.67
2019-05-21T12:23:07.232Z,10.30
2019-05-21T12:25:36.668Z,10.70
2019-05-21T12:28:06.146Z,11.37
2019-05-21T12:30:35.618Z,11.57
2019-05-21T12:33:05.549Z,11.53
2019-05-21T12:35:35.027Z,12.43
2019-05-21T12:38:04.614Z,11.83
2019-05-21T12:40:34.153Z,12.07
2019-05-21T12:43:03.590Z,11.40
2019-05-21T12:45:33.042Z,11.50
2019-05-21T12:48:02.514Z,12.23
2019-05-21T12:50:31.949Z,12.13
2019-05-21T12:53:01.398Z,12.00
2019-05-21T12:55:30.824Z,11.57
2019-05-21T12:58:00.310Z,11.87
2019-05-21T13:00:31.682Z,11.30
2019-05-21T13:03:01.174Z,12.93
2019-05-21T13:05:30.607Z,12.47
2019-05-21T13:08:00.239Z,12.40
2019-05-21T13:10:29.670Z,14.07
2019-05-21T13:13:00.652Z,12.40
2019-05-21T13:15:30.098Z,13.23
2019-05-21T13:17:59.622Z,13.83
2019-05-21T13:20:29.616Z,13.17
2019-05-21T13:22:59.112Z,13.17
2019-05-21T13:25:29.046Z,14.57
2019-05-21T13:27:58.506Z,13.73
2019-05-21T13:30:27.948Z,13.70
2019-05-21T13:32:57.600Z,14.63
2019-05-21T13:35:27.286Z,14.10
2019-05-21T13:37:56.801Z,15.50
2019-05-21T13:40:26.692Z,15.87
2019-05-21T13:42:56.323Z,16.17
2019-05-21T13:45:25.752Z,15.90
2019-05-21T13:47:55.206Z,17.73
2019-05-21T13:50:26.264Z,17.40
2019-05-21T13:52:55.701Z,18.30
2019-05-21T13:55:25.238Z,18.87
2019-05-21T13:57:54.808Z,17.57
2019-05-21T14:00:35.447Z,16.83
2019-05-21T14:03:05.052Z,16.50
2019-05-21T14:05:34.568Z,16.33
2019-05-21T14:08:04.197Z,15.87
2019-05-21T14:10:34.120Z,16.90
2019-05-21T14:13:03.839Z,16.83
2019-05-21T14:15:33.346Z,18.00
2019-05-21T14:18:02.867Z,17.90
2019-05-21T14:20:32.500Z,17.80
2019-05-21T14:23:01.974Z,18.77
2019-05-21T14:25:31.467Z,17.40
2019-05-21T14:28:02.193Z,17.87
2019-05-21T14:30:31.612Z,18.37
2019-05-21T14:33:01.118Z,18.53
2019-05-21T14:35:30.649Z,18.03
2019-05-21T14:38:00.127Z,17.47
2019-05-21T14:40:32.413Z,18.07
2019-05-21T14:43:01.781Z,18.53
2019-05-21T14:45:34.176Z,19.40
2019-05-21T14:48:03.099Z,19.47
2019-05-21T14:50:32.520Z,19.60
2019-05-21T14:53:02.069Z,21.43
2019-05-21T14:55:31.478Z,24.33
2019-05-21T14:58:00.942Z,19.33
2019-05-21T15:00:37.950Z,23.47
2019-05-21T15:03:07.393Z,22.77
2019-05-21T15:05:37.006Z,26.53
2019-05-21T15:08:06.703Z,22.97
2019-05-21T15:10:47.899Z,20.73
2019-05-21T15:13:08.089Z,19.53
2019-05-21T15:15:37.554Z,19.03
2019-05-21T15:18:08.052Z,20.03
2019-05-21T15:20:45.142Z,21.83
2019-05-21T15:23:14.596Z,19.47
2019-05-21T15:25:44.368Z,20.23
2019-05-21T15:28:13.860Z,17.77
2019-05-21T15:30:43.286Z,18.17
2019-05-21T15:33:12.743Z,18.47
2019-05-21T15:35:42.231Z,22.40
2019-05-21T15:38:11.672Z,19.70
2019-05-21T15:40:41.266Z,19.63
2019-05-21T15:43:10.915Z,22.37
2019-05-21T15:45:40.347Z,23.50
2019-05-21T15:48:09.872Z,24.30
2019-05-21T15:50:39.453Z,24.17
2019-05-21T15:53:10.387Z,21.47
2019-05-21T15:55:39.895Z,24.10
2019-05-21T15:58:09.496Z,23.57
2019-05-21T16:00:38.996Z,25.37
2019-05-21T16:03:08.502Z,23.97
2019-05-21T16:05:37.994Z,22.57
2019-05-21T16:08:07.463Z,26.07
2019-05-21T16:10:36.888Z,23.60
2019-05-21T16:13:06.368Z,23.23
2019-05-21T16:15:35.784Z,23.87
2019-05-21T16:18:05.314Z,23.80
2019-05-21T16:20:36.443Z,22.47
2019-05-21T16:23:05.901Z,24.60
2019-05-21T16:25:35.428Z,24.40
2019-05-21T16:28:05.002Z,21.80
2019-05-21T16:30:34.428Z,22.40
2019-05-21T16:33:04.138Z,24.43
2019-05-21T16:35:34.018Z,24.90
2019-05-21T16:38:03.783Z,24.47
2019-05-21T16:40:33.535Z,24.90
2019-05-21T16:43:04.622Z,22.40
2019-05-21T16:45:34.189Z,23.83
2019-05-21T16:48:03.709Z,21.77
2019-05-21T16:50:33.129Z,22.67
2019-05-21T16:53:03.938Z,27.77
2019-05-21T16:55:35.008Z,26.27
2019-05-21T16:58:07.288Z,27.17
2019-05-21T17:00:35.934Z,28.53
2019-05-21T17:03:05.546Z,33.17
2019-05-21T17:05:34.994Z,26.33
2019-05-21T17:08:06.385Z,25.70
2019-05-21T17:10:35.989Z,28.87
2019-05-21T17:13:05.543Z,28.00
2019-05-21T17:15:35.158Z,32.97
2019-05-21T17:18:04.805Z,33.57
2019-05-21T17:20:34.588Z,35.37
2019-05-21T17:23:04.066Z,34.60
2019-05-21T17:25:35.122Z,36.60
2019-05-21T17:28:04.683Z,36.20
2019-05-21T17:30:34.297Z,33.57
2019-05-21T17:33:03.828Z,34.20
2019-05-21T17:35:34.871Z,31.93
2019-05-21T17:38:04.397Z,36.80
2019-05-21T17:40:33.935Z,39.10
2019-05-21T17:43:03.463Z,42.23
2019-05-21T17:45:32.977Z,42.03
2019-05-21T17:48:02.440Z,42.00
2019-05-21T17:50:32.057Z,45.17
2019-05-21T17:53:01.588Z,47.97
2019-05-21T17:55:31.677Z,40.00
2019-05-21T17:58:02.753Z,40.67
2019-05-21T18:00:41.269Z,46.17
2019-05-21T18:03:10.886Z,42.67
2019-05-21T18:05:40.629Z,43.33
2019-05-21T18:08:10.417Z,50.90
2019-05-21T18:10:40.416Z,49.90
2019-05-21T18:13:09.935Z,50.17
2019-05-21T18:15:39.429Z,46.03
2019-05-21T18:18:09.129Z,47.73
2019-05-21T18:20:39.034Z,51.20
2019-05-21T18:23:09.727Z,55.93
2019-05-21T18:25:39.276Z,56.33
2019-05-21T18:28:10.199Z,52.87
2019-05-21T18:30:41.689Z,49.93
2019-05-21T18:33:11.555Z,49.60
2019-05-21T18:35:41.019Z,50.97
2019-05-21T18:38:10.580Z,49.47
2019-05-21T18:40:40.179Z,59.53
2019-05-21T18:43:09.672Z,58.60
2019-05-21T18:45:39.297Z,60.43
2019-05-21T18:48:08.878Z,54.87
2019-05-21T18:50:38.346Z,57.27
2019-05-21T18:53:07.842Z,53.13
2019-05-21T18:55:37.302Z,52.87
2019-05-21T18:58:06.800Z,56.00
2019-05-21T19:00:36.235Z,48.90
2019-05-21T19:03:05.801Z,50.53
2019-05-21T19:05:35.272Z,53.43
2019-05-21T19:08:05.265Z,56.33
2019-05-21T19:10:34.745Z,51.20
2019-05-21T19:13:04.394Z,58.63
2019-05-21T19:15:33.908Z,56.70
2019-05-21T19:18:03.514Z,56.13
2019-05-21T19:20:33.139Z,58.70
2019-05-21T19:23:02.560Z,63.93
2019-05-21T19:25:32.101Z,62.77
2019-05-21T19:28:01.523Z,70.93
2019-05-21T19:30:31.978Z,69.37
2019-05-21T19:33:01.488Z,67.43
2019-05-21T19:35:33.213Z,60.53
2019-05-21T19:38:02.314Z,64.43
2019-05-21T19:40:31.848Z,59.43
2019-05-21T19:43:01.306Z,59.43
2019-05-21T19:45:31.503Z,53.60
2019-05-21T19:48:01.082Z,51.63
2019-05-21T19:50:30.682Z,53.27
2019-05-21T19:53:00.110Z,54.30
2019-05-21T19:55:29.570Z,48.23
2019-05-21T19:57:59.090Z,53.43
2019-05-21T20:00:30.481Z,50.53
2019-05-21T20:03:00.518Z,48.57
2019-05-21T20:05:30.739Z,45.77
2019-05-21T20:08:00.223Z,45.60
2019-05-21T20:10:29.667Z,47.63
2019-05-21T20:12:59.209Z,46.60
2019-05-21T20:15:28.708Z,49.97
2019-05-21T20:18:07.038Z,49.30
2019-05-21T20:20:30.251Z,49.93
2019-05-21T20:23:00.151Z,46.60
2019-05-21T20:25:30.257Z,49.87
2019-05-21T20:28:00.082Z,48.13
2019-05-21T20:30:31.848Z,43.80
2019-05-21T20:33:01.851Z,43.27
2019-05-21T20:35:31.380Z,42.30
2019-05-21T20:38:01.476Z,41.97
2019-05-21T20:40:31.293Z,39.57
2019-05-21T20:43:00.880Z,42.77
2019-05-21T20:45:31.457Z,44.17
2019-05-21T20:48:02.881Z,48.20
2019-05-21T20:50:32.340Z,45.67
2019-05-21T20:53:02.020Z,46.17
2019-05-21T20:55:32.608Z,47.77
2019-05-21T20:58:03.601Z,42.53
2019-05-21T21:00:36.241Z,41.00
2019-05-21T21:03:08.109Z,45.30
2019-05-21T21:05:37.807Z,39.97
2019-05-21T21:08:07.772Z,37.07
2019-05-21T21:10:37.978Z,41.27
2019-05-21T21:13:08.952Z,42.80
2019-05-21T21:15:39.213Z,41.97
2019-05-21T21:18:09.130Z,43.17
2019-05-21T21:20:38.793Z,42.90
2019-05-21T21:23:08.238Z,41.93
2019-05-21T21:25:38.185Z,34.00
2019-05-21T21:28:07.858Z,35.40
2019-05-21T21:30:38.823Z,35.07
2019-05-21T21:33:10.124Z,40.20
2019-05-21T21:35:40.121Z,35.13
2019-05-21T21:38:12.769Z,39.53
2019-05-21T21:40:42.325Z,40.80
2019-05-21T21:43:12.356Z,39.13
2019-05-21T21:45:42.520Z,40.43
2019-05-21T21:48:12.387Z,46.67
2019-05-21T21:50:42.453Z,42.47
2019-05-21T21:53:12.166Z,48.13
2019-05-21T21:55:41.891Z,37.63
2019-05-21T21:58:11.706Z,37.47
2019-05-21T22:01:01.007Z,30.80
2019-05-21T22:03:33.501Z,32.80
2019-05-21T22:06:06.495Z,33.27
2019-05-21T22:08:36.235Z,31.30
2019-05-21T22:11:06.002Z,35.33
2019-05-21T22:13:35.720Z,37.03
2019-05-21T22:16:06.095Z,34.47
2019-05-21T22:18:37.312Z,36.80
2019-05-21T22:21:07.636Z,43.03
2019-05-21T22:23:37.156Z,39.83
2019-05-21T22:26:06.600Z,43.03
2019-05-21T22:28:37.645Z,39.43
2019-05-21T22:31:07.053Z,41.80
2019-05-21T22:33:37.070Z,40.80
2019-05-21T22:36:06.874Z,45.17
2019-05-21T22:38:36.337Z,47.00
2019-05-21T22:41:06.157Z,39.37
2019-05-21T22:43:35.815Z,39.77
2019-05-21T22:46:05.267Z,39.93
2019-05-21T22:48:34.788Z,42.07
2019-05-21T22:51:04.529Z,39.60
2019-05-21T22:53:33.945Z,35.53
2019-05-21T22:56:03.458Z,34.67
2019-05-21T22:58:32.882Z,31.57
2019-05-21T23:01:02.883Z,31.43
2019-05-21T23:03:32.309Z,31.23
2019-05-21T23:06:01.780Z,31.93
2019-05-21T23:08:31.835Z,31.83
2019-05-21T23:11:01.302Z,35.70
2019-05-21T23:13:32.290Z,40.17
2019-05-21T23:16:01.937Z,39.50
2019-05-21T23:18:33.371Z,38.83
2019-05-21T23:21:03.984Z,34.20
2019-05-21T23:23:33.650Z,31.93
2019-05-21T23:26:03.737Z,32.90
2019-05-21T23:28:34.406Z,31.37
2019-05-21T23:31:05.380Z,32.77
2019-05-21T23:33:36.165Z,30.37
2019-05-21T23:36:09.871Z,29.57
2019-05-21T23:38:39.398Z,30.87
2019-05-21T23:41:08.874Z,31.93
2019-05-21T23:43:40.169Z,36.77
2019-05-21T23:46:10.675Z,33.53
2019-05-21T23:48:40.565Z,32.67
2019-05-21T23:51:10.897Z,28.73
2019-05-21T23:53:40.779Z,23.80
2019-05-21T23:56:10.386Z,33.20
2019-05-21T23:58:39.834Z,31.50
